createdAt,value
2019-05-03T00:02:27.894Z,3.05
2019-05-03T00:05:21.965Z,4.30
2019-05-03T00:07:56.039Z,2.92
2019-05-03T00:10:28.144Z,2.17
2019-05-03T00:13:01.758Z,1.70
2019-05-03T00:16:12.102Z,2.10
2019-05-03T00:18:43.665Z,1.57
2019-05-03T00:21:15.205Z,1.90
2019-05-03T00:23:46.597Z,2.17
2019-05-03T00:26:18.064Z,1.85
2019-05-03T00:28:49.390Z,2.30
2019-05-03T00:31:22.565Z,1.77
2019-05-03T00:33:58.127Z,1.70
2019-05-03T00:36:52.530Z,1.40
2019-05-03T00:39:29.701Z,1.82
2019-05-03T00:42:02.730Z,1.87
2019-05-03T00:44:34.261Z,2.87
2019-05-03T00:47:05.952Z,2.33
2019-05-03T00:49:37.839Z,1.00
2019-05-03T00:52:09.182Z,1.22
2019-05-03T00:54:42.364Z,1.70
2019-05-03T00:57:14.501Z,2.05
2019-05-03T00:59:46.201Z,1.40
2019-05-03T01:02:18.023Z,2.00
2019-05-03T01:04:49.341Z,1.77
2019-05-03T01:07:22.247Z,2.25
2019-05-03T01:09:53.754Z,2.20
2019-05-03T01:12:25.365Z,2.08
2019-05-03T01:14:59.113Z,1.90
2019-05-03T01:17:32.015Z,1.72
2019-05-03T01:20:03.395Z,1.72
2019-05-03T01:22:34.977Z,2.10
2019-05-03T01:25:07.001Z,1.32
2019-05-03T01:27:38.410Z,3.27
2019-05-03T01:30:11.923Z,1.35
2019-05-03T01:32:43.503Z,1.37
2019-05-03T01:35:14.787Z,2.67
2019-05-03T01:37:46.605Z,1.42
2019-05-03T01:40:18.837Z,1.15
2019-05-03T01:42:51.844Z,1.95
2019-05-03T01:45:23.642Z,1.45
2019-05-03T01:48:04.031Z,2.20
2019-05-03T01:50:44.864Z,1.80
2019-05-03T01:53:18.158Z,1.27
2019-05-03T01:58:24.575Z,1.30
2019-05-03T02:01:17.866Z,1.85
2019-05-03T02:03:56.458Z,1.42
2019-05-03T02:06:28.080Z,4.15
2019-05-03T02:09:01.509Z,1.65
2019-05-03T02:11:34.652Z,1.45
2019-05-03T02:14:06.658Z,2.08
2019-05-03T02:16:38.477Z,3.83
2019-05-03T02:19:09.917Z,3.70
2019-05-03T02:21:41.671Z,1.90
2019-05-03T02:24:14.204Z,2.00
2019-05-03T02:26:45.573Z,1.55
2019-05-03T02:29:16.974Z,2.30
2019-05-03T02:31:48.642Z,2.42
2019-05-03T02:34:23.688Z,3.90
2019-05-03T02:39:25.834Z,2.50
2019-05-03T02:42:03.046Z,2.37
2019-05-03T02:44:30.691Z,2.02
2019-05-03T02:47:20.891Z,1.80
2019-05-03T02:49:57.145Z,2.90
2019-05-03T02:52:36.486Z,4.25
2019-05-03T02:55:09.593Z,1.80
2019-05-03T03:00:16.358Z,2.27
2019-05-03T03:02:47.633Z,2.40
2019-05-03T03:05:19.262Z,2.25
2019-05-03T03:07:52.366Z,1.65
2019-05-03T03:10:26.309Z,1.77
2019-05-03T03:13:00.027Z,1.15
2019-05-03T03:15:36.262Z,1.50
2019-05-03T03:18:09.900Z,1.82
2019-05-03T03:20:44.973Z,1.80
2019-05-03T03:23:19.291Z,1.55
2019-05-03T03:25:55.614Z,1.70
2019-05-03T03:28:27.894Z,1.85
2019-05-03T03:31:28.234Z,2.12
2019-05-03T03:33:59.821Z,1.60
2019-05-03T03:36:50.288Z,2.25
2019-05-03T03:39:06.990Z,2.15
2019-05-03T03:44:36.519Z,1.90
2019-05-03T03:47:11.458Z,3.17
2019-05-03T03:49:47.366Z,2.55
2019-05-03T03:52:21.065Z,3.33
2019-05-03T03:54:55.521Z,3.40
2019-05-03T03:57:28.938Z,1.72
2019-05-03T04:02:31.603Z,2.00
2019-05-03T04:05:05.509Z,2.92
2019-05-03T04:07:36.614Z,2.22
2019-05-03T04:10:09.669Z,3.52
2019-05-03T04:12:45.463Z,2.62
2019-05-03T04:15:36.679Z,3.05
2019-05-03T04:18:31.371Z,4.47
2019-05-03T04:21:05.393Z,2.83
2019-05-03T04:23:36.134Z,3.62
2019-05-03T04:26:08.549Z,3.42
2019-05-03T04:28:40.558Z,5.07
2019-05-03T04:31:12.196Z,4.30
2019-05-03T04:33:45.071Z,4.35
2019-05-03T04:36:16.749Z,4.10
2019-05-03T04:38:48.570Z,4.95
2019-05-03T04:41:19.877Z,4.50
2019-05-03T04:43:51.211Z,5.87
2019-05-03T04:46:26.025Z,5.67
2019-05-03T04:48:57.732Z,6.28
2019-05-03T04:51:29.772Z,6.47
2019-05-03T04:54:38.367Z,7.05
2019-05-03T04:57:10.241Z,7.35
2019-05-03T04:59:41.611Z,6.67
2019-05-03T05:02:15.689Z,9.20
2019-05-03T05:04:46.579Z,9.10
2019-05-03T05:07:19.272Z,8.20
2019-05-03T05:09:50.748Z,7.42
2019-05-03T05:12:25.159Z,7.47
2019-05-03T05:14:56.706Z,10.85
2019-05-03T05:17:56.287Z,8.03
2019-05-03T05:20:50.180Z,9.08
2019-05-03T05:23:22.191Z,8.78
2019-05-03T05:25:59.997Z,10.80
2019-05-03T05:28:41.403Z,8.78
2019-05-03T05:31:15.014Z,10.82
2019-05-03T05:33:45.909Z,7.40
2019-05-03T05:36:17.272Z,8.73
2019-05-03T05:38:48.752Z,12.45
2019-05-03T05:41:20.070Z,34.23
2019-05-03T05:43:51.361Z,14.55
2019-05-03T05:46:24.905Z,8.08
2019-05-03T05:48:58.188Z,11.03
2019-05-03T05:51:29.651Z,12.18
2019-05-03T05:54:01.267Z,14.10
2019-05-03T06:01:05.903Z,14.95
2019-05-03T06:03:44.917Z,14.95
2019-05-03T06:06:28.744Z,12.88
2019-05-03T06:09:20.901Z,14.80
2019-05-03T06:11:59.316Z,11.00
2019-05-03T06:14:39.165Z,12.33
2019-05-03T06:17:32.228Z,12.15
2019-05-03T06:20:58.245Z,11.33
2019-05-03T09:54:19.620Z,10.03
2019-05-03T09:56:58.769Z,11.45
2019-05-03T09:59:31.060Z,11.95
2019-05-03T10:02:12.168Z,7.58
2019-05-03T10:04:44.626Z,6.95
2019-05-03T10:07:20.724Z,7.83
2019-05-03T10:09:55.213Z,15.70
2019-05-03T10:12:34.977Z,7.62
2019-05-03T10:15:18.174Z,13.55
2019-05-03T10:18:08.666Z,10.82
2019-05-03T10:20:39.967Z,10.63
2019-05-03T10:23:32.697Z,5.90
2019-05-03T10:26:06.201Z,10.28
2019-05-03T10:28:41.145Z,7.08
2019-05-03T10:31:13.240Z,7.80
2019-05-03T10:33:49.444Z,8.33
2019-05-03T10:36:21.289Z,5.85
2019-05-03T10:38:55.209Z,5.00
2019-05-03T10:41:28.477Z,5.50
2019-05-03T10:44:01.636Z,7.05
2019-05-03T10:46:35.322Z,6.53
2019-05-03T10:49:10.069Z,9.30
2019-05-03T10:51:46.980Z,6.42
2019-05-03T10:54:23.108Z,6.30
2019-05-03T10:57:15.945Z,7.75
2019-05-03T10:59:52.832Z,7.53
2019-05-03T11:05:50.065Z,8.48
2019-05-03T11:08:24.156Z,5.97
2019-05-03T11:10:58.278Z,5.53
2019-05-03T11:13:34.861Z,5.67
2019-05-03T11:16:11.600Z,6.70
2019-05-03T11:18:45.556Z,5.87
2019-05-03T11:21:30.909Z,6.28
2019-05-03T11:24:10.599Z,5.67
2019-05-03T11:26:55.674Z,4.90
2019-05-03T11:29:47.449Z,6.08
2019-05-03T11:32:38.128Z,4.90
2019-05-03T11:36:17.046Z,4.12
2019-05-03T11:40:00.085Z,4.87
2019-05-03T11:46:32.336Z,3.12
2019-05-03T11:49:05.646Z,3.15
2019-05-03T11:51:41.942Z,3.02
2019-05-03T11:54:18.900Z,5.53
2019-05-03T11:57:00.991Z,4.75
2019-05-03T11:59:40.764Z,5.10
2019-05-03T12:03:00.091Z,5.30
2019-05-03T12:05:35.167Z,6.65
2019-05-03T12:08:17.588Z,5.90
2019-05-03T12:11:00.606Z,5.40
2019-05-03T12:13:46.988Z,5.40
2019-05-03T12:17:10.374Z,6.42
2019-05-03T12:19:16.902Z,5.80
2019-05-03T12:22:10.447Z,5.97
2019-05-03T12:24:54.829Z,7.87
2019-05-03T12:27:38.069Z,7.17
2019-05-03T12:31:24.362Z,7.65
2019-05-03T12:34:00.585Z,8.90
2019-05-03T12:36:59.918Z,9.05
2019-05-03T12:40:28.203Z,13.28
2019-05-03T12:43:10.016Z,13.62
2019-05-03T12:45:50.034Z,15.00
2019-05-03T12:48:18.371Z,12.13
2019-05-03T12:51:15.184Z,10.95
2019-05-03T12:53:49.450Z,15.65
2019-05-03T12:56:32.819Z,19.02
2019-05-03T12:59:35.950Z,17.73
2019-05-03T13:02:18.958Z,15.93
2019-05-03T13:04:52.389Z,16.37
2019-05-03T13:07:38.313Z,14.15
2019-05-03T13:10:09.485Z,14.20
2019-05-03T13:12:53.164Z,16.17
2019-05-03T13:15:24.551Z,12.90
2019-05-03T13:17:56.173Z,13.22
2019-05-03T13:20:29.835Z,12.33
2019-05-03T13:23:12.923Z,10.78
2019-05-03T13:25:54.973Z,9.58
2019-05-03T13:28:32.643Z,7.65
2019-05-03T13:31:08.383Z,7.28
2019-05-03T13:33:45.314Z,7.28
2019-05-03T13:38:50.831Z,6.78
2019-05-03T13:42:13.070Z,7.22
2019-05-03T13:44:44.911Z,6.80
2019-05-03T13:48:05.438Z,5.10
2019-05-03T13:50:52.440Z,7.75
2019-05-03T13:53:36.223Z,10.45
2019-05-03T13:56:43.182Z,8.80
2019-05-03T13:59:22.099Z,6.58
2019-05-03T14:02:11.215Z,7.85
2019-05-03T14:04:49.333Z,9.60
2019-05-03T14:07:15.198Z,6.78
2019-05-03T14:09:55.693Z,10.05
2019-05-03T14:12:32.198Z,10.43
2019-05-03T14:15:20.006Z,10.93
2019-05-03T14:17:56.581Z,10.70
2019-05-03T14:21:00.575Z,13.22
2019-05-03T14:23:58.925Z,11.48
2019-05-03T14:26:35.801Z,12.37
2019-05-03T14:29:10.210Z,9.88
2019-05-03T14:31:45.389Z,12.33
2019-05-03T14:34:25.717Z,10.40
2019-05-03T14:37:16.647Z,11.97
2019-05-03T14:40:01.102Z,16.57
2019-05-03T14:42:44.715Z,12.33
2019-05-03T14:45:05.638Z,12.35
2019-05-03T14:47:39.830Z,11.25
2019-05-03T14:50:15.057Z,11.05
2019-05-03T14:52:58.671Z,12.68
2019-05-03T14:55:45.140Z,9.15
2019-05-03T14:58:41.331Z,11.00
2019-05-03T15:01:28.768Z,10.78
2019-05-03T15:04:05.827Z,9.98
2019-05-03T15:06:52.313Z,15.05
2019-05-03T15:09:25.096Z,18.35
2019-05-03T15:11:58.413Z,10.15
2019-05-03T15:14:34.662Z,8.45
2019-05-03T15:17:10.476Z,12.55
2019-05-03T15:19:55.291Z,9.68
2019-05-03T15:22:28.317Z,10.72
2019-05-03T15:25:04.977Z,12.47
2019-05-03T15:27:37.037Z,12.07
2019-05-03T15:30:12.482Z,11.60
2019-05-03T15:32:57.624Z,10.72
2019-05-03T15:35:50.220Z,10.60
2019-05-03T15:38:30.391Z,9.70
2019-05-03T15:41:05.744Z,8.88
2019-05-03T15:44:01.567Z,10.08
2019-05-03T15:47:09.879Z,10.38
2019-05-03T15:49:44.675Z,10.40
2019-05-03T15:52:20.390Z,9.93
2019-05-03T15:55:09.581Z,8.88
2019-05-03T15:57:47.328Z,8.48
2019-05-03T16:00:19.819Z,9.95
2019-05-03T16:02:52.034Z,12.20
2019-05-03T16:05:25.135Z,10.32
2019-05-03T16:07:58.637Z,8.68
2019-05-03T16:10:30.336Z,11.80
2019-05-03T16:13:02.233Z,9.55
2019-05-03T16:15:35.765Z,12.43
2019-05-03T16:18:07.522Z,10.32
2019-05-03T16:20:39.593Z,10.05
2019-05-03T16:23:15.435Z,8.60
2019-05-03T16:25:47.533Z,8.63
2019-05-03T16:28:33.275Z,10.30
2019-05-03T16:31:08.471Z,10.93
2019-05-03T16:33:40.496Z,11.60
2019-05-03T16:36:14.743Z,10.63
2019-05-03T16:38:52.766Z,11.48
2019-05-03T16:41:26.567Z,11.25
2019-05-03T16:43:59.066Z,12.55
2019-05-03T16:46:31.460Z,9.78
2019-05-03T16:49:04.525Z,10.72
2019-05-03T16:51:38.329Z,11.43
2019-05-03T16:54:10.218Z,10.75
2019-05-03T16:56:41.922Z,11.65
2019-05-03T16:59:14.820Z,32.98
2019-05-03T17:01:47.757Z,20.95
2019-05-03T17:04:36.707Z,11.30
2019-05-03T17:07:27.509Z,50.95
2019-05-03T17:10:27.687Z,82.25
2019-05-03T17:13:00.989Z,88.72
2019-05-03T17:15:35.221Z,67.12
2019-05-03T17:18:09.122Z,75.00
2019-05-03T17:20:45.577Z,16.27
2019-05-03T17:23:21.762Z,34.43
2019-05-03T17:25:54.562Z,13.28
2019-05-03T17:28:28.815Z,24.85
2019-05-03T17:31:04.511Z,21.25
2019-05-03T17:33:36.626Z,21.12
2019-05-03T17:36:08.472Z,14.85
2019-05-03T17:38:40.375Z,16.10
2019-05-03T17:41:29.541Z,10.60
2019-05-03T17:44:05.871Z,14.47
2019-05-03T17:46:38.039Z,11.70
2019-05-03T17:49:14.720Z,12.73
2019-05-03T17:52:22.860Z,10.70
2019-05-03T17:55:15.270Z,13.50
2019-05-03T17:58:00.736Z,18.75
2019-05-03T18:01:09.512Z,11.78
2019-05-03T18:03:45.833Z,11.97
2019-05-03T18:06:28.824Z,10.55
2019-05-03T18:09:34.569Z,13.28
2019-05-03T18:12:16.129Z,11.43
2019-05-03T18:14:48.360Z,11.83
2019-05-03T18:17:20.519Z,10.15
2019-05-03T18:19:55.201Z,11.75
2019-05-03T18:22:26.717Z,12.33
2019-05-03T18:24:58.676Z,10.48
2019-05-03T18:27:31.958Z,11.43
2019-05-03T18:30:08.068Z,11.88
2019-05-03T18:32:40.121Z,11.22
2019-05-03T18:35:12.501Z,12.73
2019-05-03T18:38:07.686Z,11.80
2019-05-03T18:40:46.577Z,13.85
2019-05-03T18:43:25.927Z,12.53
2019-05-03T18:46:22.835Z,13.90
2019-05-03T18:48:56.537Z,15.38
2019-05-03T18:51:28.860Z,14.35
2019-05-03T18:54:00.616Z,13.63
2019-05-03T18:56:34.675Z,12.33
2019-05-03T18:59:17.801Z,78.37
2019-05-03T19:01:59.404Z,61.53
2019-05-03T19:05:05.083Z,67.92
2019-05-03T19:08:46.857Z,80.50
2019-05-03T19:11:49.609Z,97.08
2019-05-03T19:14:27.846Z,75.20
2019-05-03T19:17:28.093Z,63.00
2019-05-03T19:20:55.111Z,43.98
2019-05-03T19:23:31.595Z,15.57
2019-05-03T19:26:46.252Z,23.35
2019-05-03T19:29:44.805Z,20.10
2019-05-03T19:34:54.736Z,17.42
2019-05-03T19:35:29.598Z,16.90
2019-05-03T19:38:05.920Z,14.90
2019-05-03T19:41:16.281Z,17.87
2019-05-03T19:43:51.823Z,16.93
2019-05-03T19:46:35.081Z,19.80
2019-05-03T19:49:08.891Z,16.37
2019-05-03T19:51:45.155Z,13.65
2019-05-03T19:54:21.603Z,18.67
2019-05-03T19:56:58.757Z,16.87
2019-05-03T19:59:56.794Z,15.83
2019-05-03T20:02:47.021Z,20.62
2019-05-03T20:05:44.872Z,16.30
2019-05-03T20:08:37.241Z,15.18
2019-05-03T20:11:17.347Z,13.75
2019-05-03T20:14:14.775Z,13.08
2019-05-03T20:16:42.316Z,13.28
2019-05-03T20:19:22.313Z,30.37
2019-05-03T20:22:06.820Z,14.03
2019-05-03T20:25:38.693Z,13.62
2019-05-03T20:27:39.138Z,14.00
2019-05-03T20:30:21.528Z,15.68
2019-05-03T20:32:55.658Z,13.18
2019-05-03T20:35:37.844Z,12.95
2019-05-03T20:38:11.673Z,15.03
2019-05-03T20:40:57.129Z,13.55
2019-05-03T20:43:36.607Z,13.05
2019-05-03T20:46:42.126Z,14.65
2019-05-03T20:49:16.731Z,15.63
2019-05-03T20:51:54.498Z,11.88
2019-05-03T20:54:55.330Z,13.68
2019-05-03T20:57:33.001Z,38.33
2019-05-03T21:00:25.642Z,14.93
2019-05-03T21:03:15.319Z,12.58
2019-05-03T21:09:45.700Z,15.53
2019-05-03T21:18:58.566Z,13.93
2019-05-03T21:21:39.028Z,12.80
2019-05-03T21:24:47.157Z,15.85
2019-05-03T21:27:20.812Z,11.75
2019-05-03T21:30:15.139Z,15.45
2019-05-03T21:32:48.739Z,14.45
2019-05-03T21:35:25.091Z,12.40
2019-05-03T21:40:54.672Z,12.85
2019-05-03T21:43:31.055Z,12.60
2019-05-03T21:46:21.695Z,12.55
2019-05-03T21:49:12.169Z,15.45
2019-05-03T21:51:53.922Z,15.08
2019-05-03T21:54:50.971Z,13.35
2019-05-03T21:57:31.087Z,15.28
2019-05-03T22:00:17.669Z,15.05
2019-05-03T22:03:00.275Z,12.68
2019-05-03T22:05:37.659Z,16.70
2019-05-03T22:08:15.050Z,17.62
2019-05-03T22:10:50.956Z,16.50
2019-05-03T22:13:24.580Z,14.50
2019-05-03T22:16:01.951Z,15.65
2019-05-03T22:18:38.649Z,14.55
2019-05-03T22:21:34.631Z,12.98
2019-05-03T22:24:32.131Z,12.03
2019-05-03T22:27:15.375Z,11.63
2019-05-03T22:29:54.536Z,15.43
2019-05-03T22:32:30.951Z,12.47
2019-05-03T22:35:15.587Z,12.98
2019-05-03T22:37:44.863Z,12.85
2019-05-03T22:40:19.691Z,12.35
2019-05-03T22:42:57.495Z,13.98
2019-05-03T22:45:49.916Z,12.68
2019-05-03T22:48:25.230Z,12.65
2019-05-03T22:51:00.666Z,14.28
2019-05-03T22:53:44.869Z,15.45
2019-05-03T22:56:21.217Z,14.07
2019-05-03T22:58:56.636Z,15.20
2019-05-03T23:01:35.645Z,14.10
2019-05-03T23:04:09.761Z,15.45
2019-05-03T23:06:47.133Z,14.20
2019-05-03T23:09:19.241Z,12.55
2019-05-03T23:11:55.432Z,13.90
2019-05-03T23:14:49.060Z,16.80
2019-05-03T23:17:27.161Z,14.50
2019-05-03T23:20:07.080Z,14.10
2019-05-03T23:22:42.841Z,13.95
2019-05-03T23:25:25.436Z,14.90
2019-05-03T23:28:00.811Z,15.95
2019-05-03T23:30:37.093Z,17.02
2019-05-03T23:33:48.799Z,12.23
2019-05-03T23:36:36.282Z,13.35
2019-05-03T23:40:01.890Z,12.50
2019-05-03T23:42:38.234Z,14.03
2019-05-03T23:45:12.070Z,15.95
2019-05-03T23:47:52.326Z,15.48
2019-05-03T23:50:29.995Z,13.78
2019-05-03T23:53:40.484Z,14.58
2019-05-03T23:56:16.213Z,15.25
